Time;durP1;ratioP1;P1;durP2;ratioP2;P2;SDS_P1;SDS_P2;PMS_P1;PMS_P2;Temp;Humidity;BMP_temperature;BMP_pressure;BME280_temperature;BME280_humidity;BME280_pressure;Samples;Min_cycle;Max_cycle;Signal;HPM_P1;HPM_P2
2022/12/15 00:38:57;;;;;;;33.53;23.27;;;3.40;99.90;;;3.49;75.73;100486.31;5053489;28;20041;-68
2022/12/15 00:41:31;;;;;;;37.13;23.17;;;3.40;99.90;;;3.41;75.22;100508.81;5052812;28;20071;-68
2022/12/15 00:43:59;;;;;;;35.50;22.60;;;3.30;99.90;;;3.40;75.74;100496.59;5052835;28;20398;-66
2022/12/15 01:22:23;;;;;;;39.07;24.10;;;2.40;99.90;;;2.77;78.80;100496.22;5052682;28;20071;-66
2022/12/15 01:24:52;;;;;;;37.13;24.63;;;2.50;99.90;;;2.86;78.48;100504.28;5052725;28;20045;-67
2022/12/15 01:27:21;;;;;;;32.00;23.90;;;2.70;99.90;;;2.91;78.00;100515.69;5052368;28;20048;-67
2022/12/15 01:29:49;;;;;;;32.35;22.17;;;2.70;99.90;;;2.99;77.75;100511.50;5052401;28;20045;-67
2022/12/15 01:32:18;;;;;;;36.93;23.97;;;2.90;99.90;;;3.08;77.58;100516.91;5052336;28;20149;-67
2022/12/15 01:34:46;;;;;;;34.40;23.20;;;3.00;99.90;;;3.10;77.35;100520.41;5052357;28;20033;-67
2022/12/15 01:37:15;;;;;;;35.70;23.77;;;3.10;99.90;;;3.04;77.39;100525.53;5052877;28;20045;-67
2022/12/15 01:42:45;;;;;;;36.83;22.85;;;2.80;99.90;;;2.35;76.61;100517.09;5014014;28;20054;-67
2022/12/15 01:45:52;;;;;;;34.47;22.70;;;2.20;99.90;;;2.20;76.84;100514.13;5013871;28;20590;-67
2022/12/15 01:48:28;;;;;;;39.87;23.53;;;2.20;99.90;;;2.20;77.40;100535.00;5015511;28;20057;-67
2022/12/15 01:51:13;;;;;;;33.77;23.13;;;2.20;99.90;;;2.29;77.80;100516.94;5056061;28;20063;-67
2022/12/15 01:53:48;;;;;;;32.57;22.37;;;2.20;99.90;;;2.27;77.86;100525.56;5055986;28;20049;-66
2022/12/15 01:56:18;;;;;;;34.07;23.63;;;2.10;99.90;;;2.26;77.85;100524.72;5055949;28;20040;-67
2022/12/15 01:58:52;;;;;;;36.43;23.83;;;2.10;99.90;;;2.24;78.38;100536.84;5056076;28;20052;-67
2022/12/15 02:01:20;;;;;;;33.50;22.00;;;2.20;99.90;;;2.38;78.18;100535.41;5056026;28;20072;-67
2022/12/15 02:03:49;;;;;;;33.53;22.10;;;2.20;99.90;;;2.42;77.94;100545.06;5055737;28;20502;-67
2022/12/15 02:06:21;;;;;;;34.13;22.43;;;2.30;99.90;;;2.48;77.72;100539.09;5055704;28;20040;-67
2022/12/15 02:08:52;;;;;;;36.23;23.90;;;2.40;99.90;;;2.38;77.65;100545.00;5055769;28;20469;-67
2022/12/15 02:11:42;;;;;;;31.03;21.47;;;2.30;99.90;;;2.32;78.25;100545.69;5055699;28;20041;-67
2022/12/15 02:14:18;;;;;;;33.70;22.08;;;2.20;99.90;;;2.42;78.34;100563.34;5055392;28;20073;-67
2022/12/15 02:17:17;;;;;;;29.20;22.27;;;2.30;99.90;;;2.45;78.38;100560.81;5055340;28;20045;-67
2022/12/15 02:20:26;;;;;;;33.07;22.00;;;2.20;99.90;;;2.38;78.27;100568.47;5054022;28;20049;-66
2022/12/15 02:23:57;;;;;;;32.20;22.97;;;2.20;99.90;;;2.21;78.02;100547.19;5040499;28;20057;-66
2022/12/15 02:27:03;;;;;;;;;;;2.20;99.90;;;1.79;78.20;100565.28;5052190;28;20411;-66
2022/12/15 02:30:28;;;;;;;33.80;22.67;;;1.80;99.90;;;1.01;81.41;100562.25;5055085;28;20385;-67
2022/12/15 02:33:07;;;;;;;33.80;22.13;;;1.00;99.90;;;1.34;82.78;100561.47;5013158;28;20630;-67
2022/12/15 02:35:48;;;;;;;34.77;23.23;;;1.10;99.90;;;1.71;82.28;100559.00;5050496;28;20111;-66
2022/12/15 02:38:28;;;;;;;37.53;26.03;;;1.40;99.90;;;1.91;82.36;100558.59;5055192;28;20053;-67
2022/12/15 02:40:59;;;;;;;37.53;23.63;;;1.70;99.90;;;1.94;82.16;100553.44;5055001;28;20483;-67
2022/12/15 02:43:29;;;;;;;34.70;23.97;;;1.90;99.90;;;2.05;82.17;100550.28;5053395;28;20486;-67
2022/12/15 02:46:10;;;;;;;;;;;2.00;99.90;;;2.12;81.77;100552.19;5055214;28;20132;-67
2022/12/15 02:48:49;;;;;;;34.88;23.33;;;2.10;99.90;;;2.10;82.17;100547.78;5055066;28;19924;-66
2022/12/15 02:51:35;;;;;;;36.87;23.23;;;2.10;99.90;;;2.09;82.15;100552.09;5069332;28;20148;-67
2022/12/15 02:54:27;;;;;;;35.20;23.83;;;2.00;99.90;;;2.21;81.73;100547.19;5054611;28;20037;-67
2022/12/15 02:57:05;;;;;;;38.77;24.50;;;2.10;99.90;;;2.34;81.45;100561.41;5054817;28;20056;-68
2022/12/15 02:59:42;;;;;;;35.97;24.60;;;2.20;99.90;;;2.35;80.89;100563.16;5054851;28;20068;-68
2022/12/15 03:02:14;;;;;;;35.37;23.97;;;2.30;99.90;;;2.31;80.53;100564.81;5054358;28;20052;-67
2022/12/15 03:04:44;;;;;;;35.37;24.00;;;2.30;99.90;;;2.24;79.92;100565.53;5054388;28;20052;-67
2022/12/15 03:07:14;;;;;;;37.78;24.45;;;2.20;99.90;;;2.30;80.08;100573.50;5054635;28;20044;-66
2022/12/15 03:09:42;;;;;;;35.90;23.23;;;2.20;99.90;;;2.38;79.26;100568.47;5054294;28;20475;-66
2022/12/15 03:12:11;;;;;;;36.20;23.57;;;2.30;99.90;;;2.35;78.81;100571.88;5054493;28;20044;-67
2022/12/15 03:14:39;;;;;;;35.57;23.83;;;2.40;99.90;;;2.38;78.60;100568.47;5054167;28;20410;-67
2022/12/15 03:17:07;;;;;;;31.40;20.73;;;2.30;99.90;;;2.46;78.47;100570.38;5054396;28;20041;-66
2022/12/15 03:19:37;;;;;;;33.43;22.30;;;2.40;99.90;;;2.49;78.24;100565.25;5054129;28;20502;-66
2022/12/15 03:22:05;;;;;;;38.67;23.15;;;2.50;99.90;;;2.47;78.09;100564.34;5053010;28;20041;-67
2022/12/15 03:24:34;;;;;;;31.70;22.47;;;2.50;99.90;;;2.49;78.12;100570.47;5054016;28;20120;-66
2022/12/15 03:27:02;;;;;;;30.67;20.93;;;2.50;99.90;;;2.52;77.89;100567.03;5053981;28;20065;-66
2022/12/15 03:29:30;;;;;;;29.90;20.77;;;2.50;99.90;;;2.57;77.87;100565.44;5053840;28;20412;-66
2022/12/15 03:31:59;;;;;;;30.27;21.40;;;2.50;99.90;;;2.57;78.21;100574.16;5054402;28;20041;-67
2022/12/15 03:34:27;;;;;;;30.40;20.40;;;2.50;99.90;;;2.62;78.50;100566.41;5053736;28;20041;-67
2022/12/15 03:36:58;;;;;;;29.20;19.27;;;2.60;99.90;;;2.72;78.33;100579.72;5053681;28;20094;-67
2022/12/15 03:39:26;;;;;;;30.38;21.50;;;2.70;99.90;;;2.63;78.56;100566.44;5054372;28;20051;-67
2022/12/15 03:41:54;;;;;;;36.57;24.13;;;2.70;99.90;;;2.50;77.61;100580.06;5053535;28;20380;-66
2022/12/15 03:44:23;;;;;;;31.07;21.77;;;2.50;99.90;;;2.34;77.68;100577.94;5053773;28;20053;-66
2022/12/15 03:46:51;;;;;;;28.80;20.70;;;2.20;99.90;;;2.23;78.41;100576.81;5052590;28;20427;-67
2022/12/15 03:49:19;;;;;;;33.17;22.00;;;2.10;99.90;;;2.15;78.50;100567.91;5053729;28;20045;-66
2022/12/15 03:51:47;;;;;;;28.10;19.83;;;2.10;99.90;;;2.24;79.19;100559.44;5053487;28;20102;-66
2022/12/15 03:54:17;;;;;;;28.53;19.77;;;2.10;99.90;;;2.31;79.68;100592.63;5053713;28;20045;-66
2022/12/15 03:56:45;;;;;;;25.73;18.98;;;2.20;99.90;;;2.50;79.81;100568.72;5053445;28;20040;-67
2022/12/15 03:59:14;;;;;;;30.33;19.07;;;2.30;99.90;;;2.53;79.33;100571.44;5053333;28;20041;-66
2022/12/15 04:01:47;;;;;;;26.33;16.57;;;2.50;99.90;;;2.59;80.25;100577.66;5052969;28;20403;-67
2022/12/15 04:04:16;;;;;;;24.97;17.33;;;2.50;99.90;;;2.63;79.74;100571.66;5053393;28;20641;-66
2022/12/15 04:06:45;;;;;;;40.17;19.87;;;2.50;99.90;;;2.52;80.04;100557.47;5053475;28;20044;-66
2022/12/15 04:09:13;;;;;;;27.87;19.27;;;2.50;99.90;;;2.51;80.10;100558.34;5053211;28;20041;-66
2022/12/15 04:11:43;;;;;;;22.83;16.03;;;2.50;99.90;;;2.64;80.56;100565.59;5053431;28;20371;-67
2022/12/15 04:14:11;;;;;;;25.63;17.33;;;2.50;99.90;;;2.62;80.66;100563.78;5053131;28;20124;-66
2022/12/15 04:16:40;;;;;;;21.07;15.97;;;2.50;99.90;;;2.60;81.11;100566.38;5053079;28;20059;-67
2022/12/15 04:22:05;;;;;;;21.67;16.13;;;2.60;99.90;;;2.80;80.60;100568.53;5011105;28;20145;-66
2022/12/15 05:34:07;;;;;;;23.23;15.67;;;3.20;99.90;;;3.16;78.93;100603.25;5056187;28;20049;-67
2022/12/15 05:36:35;;;;;;;28.27;15.33;;;3.10;99.90;;;3.20;78.70;100592.03;5055058;28;20048;-67
2022/12/15 05:39:04;;;;;;;27.17;16.83;;;3.10;99.90;;;3.06;78.47;100596.09;5056204;28;20283;-67
2022/12/15 05:41:32;;;;;;;23.47;16.73;;;3.00;99.90;;;3.02;78.97;100594.28;5056219;28;20060;-66
2022/12/15 05:44:01;;;;;;;24.53;17.50;;;2.90;99.90;;;3.05;78.72;100596.94;5055832;28;20053;-66
2022/12/15 05:46:29;;;;;;;19.70;16.20;;;3.00;99.90;;;3.16;78.64;100606.75;5055868;28;20521;-67
2022/12/15 05:48:57;;;;;;;22.93;16.63;;;3.00;99.90;;;3.20;78.58;100600.75;5055837;28;20041;-67
2022/12/15 05:51:27;;;;;;;19.47;15.10;;;3.10;99.90;;;3.11;78.97;100591.84;5056008;28;20391;-66
2022/12/15 05:53:55;;;;;;;20.13;15.00;;;3.10;99.90;;;3.20;78.77;100615.53;5054752;28;20139;-67
2022/12/15 05:56:26;;;;;;;22.60;16.30;;;3.10;99.90;;;3.15;79.21;100615.47;5055643;28;20045;-67
2022/12/15 05:58:55;;;;;;;19.67;15.57;;;3.10;99.90;;;3.22;79.02;100632.13;5055736;28;20127;-67
2022/12/15 06:01:25;;;;;;;23.20;16.70;;;3.10;99.90;;;3.19;79.05;100632.97;5055611;28;20371;-66
2022/12/15 06:03:54;;;;;;;24.45;16.33;;;3.10;99.90;;;3.20;78.86;100626.00;5055782;28;20096;-66
2022/12/15 06:06:22;;;;;;;19.43;15.00;;;3.10;99.90;;;3.26;79.42;100621.78;5071136;28;20136;-66
2022/12/15 06:08:52;;;;;;;24.33;16.00;;;3.20;99.90;;;3.13;79.48;100626.72;5054441;28;20044;-67
2022/12/15 06:11:21;;;;;;;21.00;15.90;;;3.10;99.90;;;2.95;80.15;100627.22;5055676;28;20079;-66
2022/12/15 06:13:50;;;;;;;20.23;15.33;;;3.00;99.90;;;2.87;80.49;100630.47;5055906;28;20045;-66
2022/12/15 06:16:20;;;;;;;20.77;16.27;;;2.90;99.90;;;2.92;80.34;100631.50;5055879;28;20041;-67
2022/12/15 06:18:53;;;;;;;20.15;14.68;;;2.80;99.90;;;2.87;79.91;100602.66;5055706;28;20055;-67
2022/12/15 06:21:25;;;;;;;21.07;15.30;;;2.90;99.90;;;3.14;79.69;100636.31;5055249;28;20494;-66
2022/12/15 06:23:56;;;;;;;22.13;15.10;;;3.00;99.90;;;3.22;79.74;100635.63;5055142;28;20405;-67
2022/12/15 06:26:28;;;;;;;20.07;14.60;;;3.10;99.90;;;3.18;79.97;100639.03;5055017;28;20044;-66
2022/12/15 06:29:01;;;;;;;20.10;15.20;;;3.10;99.90;;;3.11;80.13;100641.47;5055426;28;20051;-67
2022/12/15 06:31:30;;;;;;;22.27;15.80;;;3.00;99.90;;;3.06;80.38;100643.97;5055375;28;20056;-66
2022/12/15 06:33:59;;;;;;;22.33;14.40;;;3.00;99.90;;;2.92;81.02;100636.72;5055045;28;20494;-66
2022/12/15 06:36:30;;;;;;;20.77;15.80;;;2.90;99.90;;;3.00;81.26;100643.84;5055000;28;20045;-66
2022/12/15 06:39:01;;;;;;;21.97;14.70;;;3.00;99.90;;;2.54;81.06;100521.88;5055414;28;20041;-66
2022/12/15 06:41:30;;;;;;;21.07;15.53;;;3.00;99.90;;;3.18;80.79;100635.53;5054886;28;20688;-66
2022/12/15 06:43:59;;;;;;;19.73;14.63;;;3.00;99.90;;;3.17;80.52;100644.22;5054654;28;20490;-66
2022/12/15 06:46:30;;;;;;;18.20;14.47;;;3.10;99.90;;;3.06;80.54;100609.16;5054640;28;20045;-66
2022/12/15 06:48:59;;;;;;;18.03;14.60;;;3.10;99.90;;;3.25;80.36;100648.75;5053415;28;20063;-66
2022/12/15 06:51:28;;;;;;;21.50;15.40;;;3.20;99.90;;;3.18;80.25;100622.47;5054606;28;20071;-66
2022/12/15 06:53:57;;;;;;;19.10;14.43;;;3.20;99.90;;;3.31;80.18;100642.81;5053238;28;20107;-66
2022/12/15 06:56:30;;;;;;;17.27;13.23;;;3.20;99.90;;;3.37;80.13;100645.50;5054759;28;20204;-66
2022/12/15 06:59:03;;;;;;;19.67;12.87;;;3.20;99.90;;;3.38;80.21;100648.19;5053237;28;20048;-67
2022/12/15 07:01:32;;;;;;;18.20;13.57;;;3.20;99.90;;;3.41;80.45;100648.22;5054971;28;20440;-66
2022/12/15 07:04:03;;;;;;;17.03;13.37;;;3.30;99.90;;;3.48;80.57;100644.03;5054298;28;20045;-66
2022/12/15 07:06:35;;;;;;;17.33;13.90;;;3.30;99.90;;;3.44;80.44;100645.69;5054353;28;20045;-66
2022/12/15 07:09:07;;;;;;;15.90;12.93;;;3.30;99.90;;;3.48;80.43;100646.63;5054841;28;20067;-67
2022/12/15 07:11:36;;;;;;;19.07;14.23;;;3.30;99.90;;;3.49;80.34;100646.66;5053323;28;20433;-66
2022/12/15 07:14:05;;;;;;;19.55;13.98;;;3.40;99.90;;;3.45;80.01;100637.00;5054396;28;20494;-66
2022/12/15 07:16:33;;;;;;;17.10;13.53;;;3.40;99.90;;;3.50;79.56;100648.41;5054148;28;20041;-66
2022/12/15 07:19:02;;;;;;;17.83;13.57;;;3.40;99.90;;;3.46;79.57;100650.94;5054099;28;20045;-66
2022/12/15 07:21:30;;;;;;;20.23;13.67;;;3.40;99.90;;;3.49;79.51;100651.00;5053992;28;20052;-66
2022/12/15 07:23:59;;;;;;;17.83;13.33;;;3.40;99.90;;;3.54;79.59;100644.16;5054190;28;20043;-64
2022/12/15 07:26:29;;;;;;;16.85;14.77;;;3.40;99.90;;;3.52;79.06;100651.06;5053975;28;20132;-68
2022/12/15 07:28:58;;;;;;;16.87;13.90;;;3.40;99.90;;;3.38;79.24;100647.28;5054116;28;20129;-68
2022/12/15 07:31:27;;;;;;;16.90;14.77;;;3.30;99.90;;;3.23;79.61;100636.53;5054027;28;20095;-69
2022/12/15 07:33:57;;;;;;;17.53;14.00;;;3.30;99.90;;;3.26;80.12;100647.91;5052744;28;20536;-68
2022/12/15 07:36:26;;;;;;;21.10;14.48;;;3.20;99.90;;;3.22;80.63;100650.44;5053741;28;20131;-69
2022/12/15 07:39:00;;;;;;;21.00;14.10;;;3.20;99.90;;;3.24;80.35;100648.72;5053879;28;20051;-72
2022/12/15 07:41:29;;;;;;;20.53;14.37;;;3.10;99.90;;;3.27;80.30;100656.66;5053648;28;20544;-71
2022/12/15 07:43:58;;;;;;;17.53;14.50;;;3.20;99.90;;;3.21;80.23;100648.69;5053683;28;20069;-70
2022/12/15 07:46:27;;;;;;;17.90;14.25;;;3.20;99.90;;;3.21;80.46;100661.75;5053933;28;20103;-70
2022/12/15 07:48:56;;;;;;;20.20;15.33;;;3.10;99.90;;;3.29;80.54;100675.84;5054061;28;20074;-70
2022/12/15 07:51:24;;;;;;;22.90;15.80;;;3.10;99.90;;;3.24;80.87;100661.78;5053336;28;20102;-68
2022/12/15 07:53:53;;;;;;;21.70;15.20;;;3.10;99.90;;;3.38;80.96;100673.44;5052353;28;20398;-67
2022/12/15 07:56:21;;;;;;;18.93;14.20;;;3.20;99.90;;;3.47;80.86;100677.13;5053365;28;20049;-68
2022/12/15 07:58:50;;;;;;;19.97;14.33;;;3.40;99.90;;;3.58;80.77;100672.97;5053334;28;20045;-68
2022/12/15 08:01:20;;;;;;;21.73;14.93;;;3.40;99.90;;;3.73;80.86;100671.53;5053534;28;20045;-68
2022/12/15 08:03:49;;;;;;;15.73;13.43;;;3.60;99.90;;;3.85;80.40;100666.53;5053238;28;20570;-68
2022/12/15 08:06:17;;;;;;;17.07;13.77;;;3.70;99.90;;;3.71;80.34;100670.63;5053443;28;20045;-70
2022/12/15 08:08:46;;;;;;;17.90;13.73;;;3.60;99.90;;;3.71;80.20;100666.28;5053191;28;20486;-69
2022/12/15 08:11:20;;;;;;;17.53;12.87;;;3.60;99.90;;;3.60;80.16;100680.88;5053596;28;20051;-70
2022/12/15 08:13:50;;;;;;;16.73;12.47;;;3.50;99.90;;;3.44;80.25;100673.56;5053547;28;20402;-70
2022/12/15 08:16:39;;;;;;;17.20;11.87;;;3.30;99.90;;;3.15;81.56;100606.75;5053146;28;20049;-69
2022/12/15 08:19:12;;;;;;;16.25;12.48;;;3.30;99.90;;;3.83;81.44;100691.78;5053189;28;20098;-69
2022/12/15 08:21:41;;;;;;;16.87;12.03;;;3.60;99.90;;;4.14;81.76;100697.59;5053102;28;20040;-70
2022/12/15 08:24:10;;;;;;;17.00;11.87;;;3.90;99.90;;;4.38;81.93;100682.34;5052941;28;20037;-71
2022/12/15 08:26:40;;;;;;;15.83;11.30;;;4.20;99.90;;;4.61;80.59;100700.22;5053027;28;20064;-69
2022/12/15 08:29:12;;;;;;;14.53;11.73;;;4.40;99.90;;;4.69;79.63;100694.22;5053012;28;20040;-68
2022/12/15 08:32:02;;;;;;;14.43;11.27;;;4.50;99.90;;;5.06;78.62;100698.28;5053054;28;20074;-69
2022/12/15 08:34:31;;;;;;;16.15;11.02;;;4.80;99.90;;;5.21;78.42;100693.25;5051921;28;20049;-68
2022/12/15 08:36:59;;;;;;;15.70;11.70;;;5.00;99.90;;;5.23;77.54;100688.91;5052772;28;20048;-69
2022/12/15 08:39:27;;;;;;;15.30;12.07;;;5.10;99.90;;;5.25;77.04;100697.69;5052875;28;20075;-68
2022/12/15 08:41:56;;;;;;;19.00;11.93;;;5.10;99.90;;;5.27;76.33;100691.63;5053153;28;20041;-69
2022/12/15 08:44:24;;;;;;;20.90;12.00;;;5.20;99.90;;;5.25;76.03;100693.34;5052652;28;20072;-65
2022/12/15 08:46:52;;;;;;;18.20;12.37;;;5.20;99.90;;;5.16;76.70;100711.56;5052761;28;20056;-73
2022/12/15 08:49:22;;;;;;;19.40;12.77;;;5.10;99.90;;;5.26;76.16;100709.94;5054615;28;20558;-80
2022/12/15 08:51:51;;;;;;;18.40;12.10;;;5.10;99.90;;;5.21;75.99;100716.84;5056822;28;20048;-70
2022/12/15 08:54:20;;;;;;;21.30;13.37;;;5.10;99.90;;;5.45;76.87;100718.09;5056836;28;20135;-76
2022/12/15 08:56:49;;;;;;;21.20;13.77;;;5.30;99.90;;;5.85;76.83;100723.88;5057056;28;20390;-70
2022/12/15 08:59:17;;;;;;;21.60;13.03;;;5.60;99.90;;;6.15;75.75;100719.88;5057001;28;20115;-68
2022/12/15 09:01:46;;;;;;;19.15;12.73;;;6.00;99.90;;;6.46;74.85;100730.69;5055670;28;20144;-76
2022/12/15 09:04:15;;;;;;;22.90;13.00;;;6.40;99.90;;;6.85;73.60;100731.06;5056870;28;20052;-69
2022/12/15 09:06:45;;;;;;;22.10;12.77;;;6.70;99.90;;;7.30;72.28;100731.38;5056760;28;20033;-69
2022/12/15 09:09:18;;;;;;;18.85;12.27;;;7.10;99.90;;;7.70;71.04;100732.50;5056559;28;20128;-74
2022/12/15 09:11:47;;;;;;;17.35;11.80;;;7.50;99.90;;;8.05;69.76;100731.75;5056378;28;20045;-68
2022/12/15 09:14:16;;;;;;;18.58;11.52;;;7.90;99.90;;;8.23;68.49;100740.59;5056351;28;20558;-71
2022/12/15 09:16:44;;;;;;;23.52;11.82;;;8.20;99.90;;;8.40;67.59;100744.19;5071941;28;20045;-68
2022/12/15 09:19:18;;;;;;;14.23;11.55;;;8.30;99.90;;;8.71;66.59;100741.59;5056551;28;20386;-66
2022/12/15 09:21:48;;;;;;;22.88;11.55;;;8.70;99.90;;;8.96;65.96;100737.22;5056507;28;20059;-69
2022/12/15 09:24:16;;;;;;;14.93;10.73;;;8.90;99.90;;;9.19;65.24;100732.81;5056497;28;20045;-74
2022/12/15 09:26:59;;;;;;;19.20;11.35;;;9.20;99.90;;;9.22;64.59;100746.00;5056501;28;20045;-73
2022/12/15 09:29:27;;;;;;;14.77;11.40;;;9.30;99.90;;;9.32;64.00;100742.47;5056641;28;20043;-80
2022/12/15 09:31:56;;;;;;;17.15;11.77;;;9.30;99.90;;;9.57;64.20;100745.94;5056730;28;20520;-79
2022/12/15 09:34:24;;;;;;;14.35;10.38;;;9.50;99.90;;;9.80;63.70;100741.47;5056186;28;20074;-86
2022/12/15 09:36:54;;;;;;;17.38;10.95;;;9.70;99.90;;;10.04;63.01;100755.44;5056708;28;20061;-81
2022/12/15 09:39:23;;;;;;;16.00;11.80;;;10.00;99.90;;;10.26;62.48;100744.84;5056009;28;20045;-78
2022/12/15 09:41:55;;;;;;;16.70;11.00;;;10.20;99.90;;;10.34;61.66;100738.59;5055928;28;20502;-83
2022/12/15 09:44:27;;;;;;;14.73;10.07;;;10.30;99.90;;;10.44;61.29;100728.84;5056079;28;20049;-79
2022/12/15 09:47:05;;;;;;;13.70;9.70;;;10.50;99.90;;;10.68;61.23;100752.50;5055924;28;20120;-78
2022/12/15 09:49:50;;;;;;;15.88;11.23;;;10.60;99.90;;;10.82;60.65;100755.91;5055836;28;20048;-75
2022/12/15 09:52:23;;;;;;;20.10;11.70;;;10.70;99.90;;;11.01;60.46;100754.91;5055818;28;20079;-77
2022/12/15 09:54:52;;;;;;;15.38;10.30;;;10.90;99.90;;;11.17;59.81;100763.59;5055818;28;20430;-79
2022/12/15 09:57:33;;;;;;;16.55;11.50;;;11.10;99.90;;;11.27;59.27;100750.25;5055926;28;20136;-85
2022/12/15 10:00:10;;;;;;;;;;;11.20;99.90;;;10.92;59.45;100770.84;5054624;28;20482;-80
2022/12/15 10:03:22;;;;;;;14.90;10.73;;;11.00;99.90;;;10.55;61.48;100769.34;5054683;28;19920;-80
2022/12/15 10:06:09;;;;;;;15.93;10.10;;;10.40;99.90;;;10.70;61.35;100772.75;5056021;28;20045;-81
2022/12/15 10:08:56;;;;;;;14.68;10.07;;;10.40;99.90;;;10.85;60.98;100774.44;5056034;28;20043;-84
2022/12/15 10:11:43;;;;;;;13.75;9.88;;;10.60;99.90;;;10.93;60.53;100774.38;5055826;28;20552;-89
2022/12/15 10:14:28;;;;;;;14.65;10.20;;;10.70;99.90;;;10.86;60.49;100790.28;5054323;28;20102;-83
2022/12/15 10:17:07;;;;;;;17.85;10.68;;;10.80;99.90;;;10.82;60.26;100787.66;5054376;28;20617;-86
2022/12/15 10:19:42;;;;;;;13.55;10.07;;;10.70;99.90;;;10.63;60.25;100775.44;5055327;28;20049;-81
2022/12/15 10:22:14;;;;;;;16.98;10.02;;;10.60;99.90;;;10.20;60.37;100777.44;5055261;28;20155;-80
2022/12/15 10:24:43;;;;;;;16.33;11.02;;;10.30;99.90;;;9.93;61.46;100781.03;5055267;28;20068;-79
2022/12/15 10:27:57;;;;;;;13.02;10.27;;;9.90;99.90;;;9.68;62.04;100784.63;5055298;28;20087;-70
2022/12/15 10:30:25;;;;;;;11.68;9.05;;;9.70;99.90;;;9.43;62.60;100785.56;5070780;28;20453;-82
2022/12/15 10:33:02;;;;;;;12.43;9.63;;;9.40;99.90;;;9.27;63.27;100788.22;5055544;28;20140;-74
2022/12/15 10:35:33;;;;;;;12.15;9.60;;;9.20;99.90;;;9.12;63.99;100786.44;5055274;28;20122;-76
2022/12/15 10:38:06;;;;;;;16.23;10.05;;;9.00;99.90;;;9.08;64.22;100789.97;5054987;28;20124;-76
2022/12/15 10:40:47;;;;;;;14.32;9.98;;;8.90;99.90;;;8.96;64.91;100790.84;5055551;28;20076;-73
2022/12/15 10:43:32;;;;;;;14.30;10.95;;;8.80;99.90;;;8.87;65.38;100779.41;5054897;28;20068;-74
2022/12/15 10:46:07;;;;;;;15.77;10.68;;;8.70;99.90;;;8.91;65.89;100771.50;5055168;28;20045;-74
2022/12/15 10:48:36;;;;;;;18.20;11.45;;;8.70;99.90;;;8.96;66.02;100766.25;5055088;28;20075;-76
2022/12/15 10:51:25;;;;;;;13.68;10.93;;;8.80;99.90;;;9.08;66.32;100771.50;5054860;28;20051;-74
2022/12/15 10:54:05;;;;;;;16.83;11.60;;;8.90;99.90;;;9.12;67.71;100773.25;5054701;28;20045;-70
2022/12/15 10:56:38;;;;;;;18.63;12.07;;;9.00;99.90;;;9.33;67.98;100781.16;5054933;28;20049;-67
2022/12/15 10:59:25;;;;;;;17.63;11.82;;;9.10;99.90;;;9.47;67.75;100789.06;5055110;28;20048;-78
2022/12/15 11:01:53;;;;;;;15.98;10.90;;;9.30;99.90;;;9.62;67.36;100787.28;5054766;28;20127;-80
2022/12/15 11:04:31;;;;;;;18.38;11.15;;;9.40;99.90;;;9.58;67.12;100745.91;5053416;28;20090;-87
2022/12/15 11:07:01;;;;;;;16.08;10.88;;;9.60;99.90;;;9.72;66.91;100770.53;5054587;28;20045;-74
2022/12/15 11:09:35;;;;;;;14.15;10.23;;;9.60;99.90;;;9.86;66.73;100773.13;5054547;28;20132;-85
2022/12/15 11:15:37;;;;;;;18.45;10.00;;;9.60;99.90;;;9.73;66.76;100772.31;5054538;28;20124;-81
2022/12/15 11:18:16;;;;;;;13.25;9.55;;;9.50;99.90;;;9.77;66.31;100775.81;5054242;28;20533;-74
2022/12/15 11:20:52;;;;;;;13.48;9.32;;;9.50;99.90;;;9.53;66.25;100750.34;5054532;28;20124;-70
2022/12/15 11:23:30;;;;;;;14.18;9.77;;;9.40;99.90;;;9.76;66.65;100780.22;5054110;28;20056;-72
2022/12/15 11:26:03;;;;;;;12.82;9.00;;;9.50;99.90;;;9.82;66.84;100774.91;5053950;28;20426;-73
2022/12/15 11:28:45;;;;;;;10.60;8.63;;;9.50;99.90;;;9.81;67.02;100765.22;5054186;28;20489;-72
2022/12/15 11:31:25;;;;;;;10.68;8.10;;;9.60;99.90;;;9.88;67.11;100769.63;5053869;28;20033;-73
2022/12/15 11:33:54;;;;;;;12.52;7.85;;;9.70;99.90;;;9.92;67.74;100763.44;5054358;28;20068;-75
2022/12/15 11:36:54;;;;;;;8.38;7.40;;;9.70;99.90;;;10.01;67.94;100754.59;5053663;28;20091;-73
2022/12/15 11:39:41;;;;;;;10.03;7.50;;;9.80;99.90;;;10.20;67.78;100758.09;5052796;28;20052;-74
2022/12/15 11:42:19;;;;;;;9.90;6.63;;;9.90;99.90;;;10.26;67.30;100758.06;5053605;28;20045;-75
2022/12/15 11:44:59;;;;;;;9.43;6.70;;;10.00;99.90;;;10.39;66.85;100757.97;5054020;28;20063;-73
2022/12/15 11:47:43;;;;;;;8.02;6.35;;;10.20;99.90;;;10.58;66.30;100764.03;5053590;28;20064;-65
2022/12/15 11:50:27;;;;;;;8.15;6.78;;;10.30;99.90;;;10.78;65.75;100762.16;5053636;28;20051;-74
2022/12/15 11:53:38;;;;;;;8.52;6.88;;;10.50;99.90;;;10.99;65.23;100772.56;5054086;28;20044;-74
2022/12/15 11:56:18;;;;;;;10.00;6.40;;;10.70;99.90;;;11.17;64.72;100771.53;5053549;28;20049;-74
2022/12/15 11:59:09;;;;;;;8.18;6.00;;;10.90;99.90;;;11.21;64.42;100755.59;5053485;28;20045;-74
2022/12/15 12:02:11;;;;;;;7.28;5.78;;;11.10;99.90;;;11.50;63.91;100774.75;5053225;28;20044;-73
2022/12/15 12:04:53;;;;;;;8.18;5.68;;;11.30;99.90;;;11.60;63.47;100794.06;5053262;28;20448;-73
2022/12/15 12:07:34;;;;;;;7.93;5.60;;;11.40;99.90;;;11.65;63.19;100765.78;5053275;28;20124;-75
2022/12/15 12:10:27;;;;;;;7.90;5.25;;;11.50;99.90;;;11.77;62.79;100766.53;5053548;28;20045;-73
2022/12/15 12:13:09;;;;;;;6.82;5.80;;;11.60;99.90;;;11.86;62.45;100754.97;5053252;28;20055;-73
2022/12/15 12:15:48;;;;;;;7.65;4.85;;;11.70;99.90;;;11.96;61.67;100769.00;5053478;28;20494;-73
2022/12/15 12:18:21;;;;;;;12.48;5.70;;;11.80;99.90;;;12.00;61.33;100765.41;5053506;28;20045;-72
2022/12/15 12:20:56;;;;;;;6.78;5.05;;;11.80;99.90;;;12.13;61.46;100764.38;5053110;28;20392;-74
2022/12/15 12:23:33;;;;;;;6.03;5.10;;;11.90;99.90;;;12.16;61.32;100751.94;5052931;28;20552;-77
2022/12/15 12:26:10;;;;;;;6.60;4.75;;;12.00;99.90;;;12.15;60.75;100754.63;5053298;28;20055;-72
2022/12/15 12:28:47;;;;;;;6.80;4.20;;;12.00;99.90;;;12.27;60.44;100754.47;5053009;28;20040;-71
2022/12/15 12:31:38;;;;;;;7.47;4.38;;;12.00;99.90;;;12.12;60.20;100744.91;5053313;28;20061;-73
2022/12/15 12:34:17;;;;;;;8.10;4.35;;;11.90;99.90;;;12.24;59.57;100739.47;5053285;28;20505;-81
2022/12/15 12:36:49;;;;;;;5.35;4.30;;;12.00;99.90;;;12.20;59.56;100731.56;5053113;28;20072;-78
2022/12/15 12:39:21;;;;;;;8.77;4.00;;;12.00;99.90;;;12.24;59.05;100735.94;5052942;28;20088;-74
2022/12/15 12:41:59;;;;;;;7.32;4.03;;;11.90;99.90;;;12.26;59.09;100734.13;5053175;28;20128;-82
2022/12/15 12:44:33;;;;;;;10.27;4.30;;;12.00;99.90;;;12.21;58.89;100735.97;5052930;28;20155;-78
2022/12/15 12:47:12;;;;;;;5.10;4.00;;;11.90;99.90;;;12.25;59.18;100724.44;5053031;28;20071;-76
2022/12/15 12:49:45;;;;;;;9.15;4.38;;;12.00;99.90;;;12.35;58.98;100726.06;5053328;28;20041;-72
2022/12/15 12:52:25;;;;;;;7.95;4.60;;;12.10;99.90;;;12.37;59.12;100721.59;5052773;28;20135;-72
2022/12/15 12:54:58;;;;;;;8.13;4.72;;;12.10;99.90;;;12.40;58.62;100713.59;5052772;28;20049;-70
2022/12/15 12:57:38;;;;;;;8.82;4.43;;;12.20;99.90;;;12.33;58.64;100704.84;5053039;28;20135;-72
2022/12/15 13:00:24;;;;;;;9.13;4.13;;;12.20;99.90;;;12.42;58.19;100706.50;5052747;28;20479;-75
2022/12/15 13:03:19;;;;;;;6.20;4.15;;;12.20;99.90;;;12.51;57.97;100712.56;5052766;28;20045;-73
2022/12/15 13:05:53;;;;;;;8.32;4.60;;;12.30;99.90;;;12.54;57.84;100712.50;5053168;28;20124;-80
2022/12/15 13:08:51;;;;;;;6.20;4.10;;;12.30;99.90;;;12.62;57.66;100713.25;5052650;28;20049;-74
2022/12/15 13:11:57;;;;;;;6.72;4.22;;;12.40;99.90;;;12.53;57.81;100710.75;5053156;28;20432;-75
2022/12/15 13:14:47;;;;;;;9.55;4.28;;;12.40;99.90;;;12.44;57.57;100715.31;5052925;28;20055;-74
2022/12/15 13:17:29;;;;;;;6.65;4.10;;;12.30;99.90;;;11.97;57.74;100647.03;5052791;28;20044;-73